Terminal Aerodrome Forecast
Issued by NWS Wilmington, OH

Current Version | Previous Version | Text Only | Print | Product List | Glossary Off
Versions: 1 2 3 4 5 6 7 8 9 10 11 12 13 14 15 16 17 18 19

199
FTUS41 KILN 190545 AAA
TAFDAY
TAF AMD
KDAY 190545Z 1906/2006 VRB04KT 5SM BR OVC120
     FM191000 VRB04KT 5SM BR VCTS OVC070CB
     FM191400 16005KT P6SM VCTS OVC050CB
      TEMPO 1914/1917 4SM TSRA OVC035CB
     FM191800 20007KT P6SM VCSH OVC070
     FM200000 19005KT P6SM BKN090=

USA.gov is the U.S. government's official web portal to all federal, state and local government web resources and services.